createdAt,value
2018-01-11T08:21:32.878Z,101055.68
2018-01-11T08:23:58.674Z,101054.39
2018-01-11T08:26:24.483Z,101058.70
2018-01-11T08:28:50.274Z,101061.14
2018-01-11T08:31:16.046Z,101062.96
2018-01-11T08:33:41.871Z,101070.27
2018-01-11T08:36:07.658Z,101074.55
2018-01-11T08:38:33.496Z,101075.72
2018-01-11T08:40:59.280Z,101079.34
2018-01-11T08:43:25.082Z,101077.43
2018-01-11T08:45:50.862Z,101085.58
2018-01-11T08:48:16.646Z,101087.19
2018-01-11T08:50:42.473Z,101091.34
2018-01-11T08:53:08.296Z,101099.46
2018-01-11T08:55:34.078Z,101102.59
2018-01-11T08:58:06.771Z,101107.56
2018-01-11T09:00:32.554Z,101102.72
2018-01-11T09:02:58.372Z,101110.23
2018-01-11T09:05:24.217Z,101114.40
2018-01-11T09:07:50.039Z,101114.95
2018-01-11T09:10:16.782Z,101115.09
2018-01-11T09:12:42.618Z,101118.44
2018-01-11T09:15:08.399Z,101115.63
2018-01-11T09:17:34.182Z,101111.63
2018-01-11T09:19:59.958Z,101118.92
2018-01-11T09:22:25.746Z,101119.81
2018-01-11T09:24:51.578Z,101119.75
2018-01-11T09:27:23.185Z,101125.45
2018-01-11T09:29:49.586Z,101124.67
2018-01-11T09:32:15.421Z,101124.81
2018-01-11T09:34:41.327Z,101134.87
2018-01-11T09:37:07.171Z,101133.45
2018-01-11T09:39:32.950Z,101133.28
2018-01-11T09:41:58.905Z,101139.40
2018-01-11T09:44:25.019Z,101136.95
2018-01-11T09:46:50.881Z,101136.44
2018-01-11T09:49:16.663Z,101142.44
2018-01-11T09:51:42.476Z,101143.57
2018-01-11T09:54:08.294Z,101145.36
2018-01-11T09:56:34.095Z,101149.06
2018-01-11T09:58:59.911Z,101151.03
2018-01-11T10:01:25.693Z,101145.05
2018-01-11T10:03:51.509Z,101148.66
2018-01-11T10:06:17.290Z,101150.50
2018-01-11T10:08:43.118Z,101152.66
2018-01-11T10:11:08.901Z,101152.73
2018-01-11T10:13:34.686Z,101155.10
2018-01-11T10:16:00.462Z,101159.58
2018-01-11T10:18:26.242Z,101158.89
2018-01-11T10:20:52.711Z,101157.22
2018-01-11T10:23:18.495Z,101158.67
2018-01-11T10:25:44.281Z,101151.35
2018-01-11T10:28:10.062Z,101154.34
2018-01-11T10:30:35.838Z,101160.22
2018-01-11T10:33:01.615Z,101156.93
2018-01-11T10:35:27.395Z,101157.09
2018-01-11T10:37:53.214Z,101162.23
2018-01-11T10:40:18.995Z,101157.31
2018-01-11T10:42:44.809Z,101164.97
2018-01-11T10:45:10.591Z,101161.95
2018-01-11T10:47:36.366Z,101159.14
2018-01-11T10:50:02.161Z,101160.22
2018-01-11T10:52:27.946Z,101156.03
2018-01-11T10:54:53.730Z,101158.66
2018-01-11T10:57:19.510Z,101161.67
2018-01-11T10:59:45.293Z,101168.84
2018-01-11T11:02:17.179Z,101166.48
2018-01-11T11:04:42.958Z,101170.82
2018-01-11T11:07:08.734Z,101168.48
2018-01-11T11:09:34.514Z,101170.27
2018-01-11T11:12:00.377Z,101167.72
2018-01-11T11:14:26.152Z,101160.95
2018-01-11T11:16:51.930Z,101160.88
2018-01-11T11:19:17.744Z,101154.71
2018-01-11T11:21:43.518Z,101157.94
2018-01-11T11:24:09.298Z,101159.42
2018-01-11T11:26:35.078Z,101160.09
2018-01-11T11:29:01.163Z,101157.83
2018-01-11T11:31:26.945Z,101154.89
2018-01-11T11:33:52.726Z,101159.68
2018-01-11T11:36:18.498Z,101164.60
2018-01-11T11:38:44.278Z,101161.54
2018-01-11T11:41:10.046Z,101158.61
2018-01-11T11:43:35.867Z,101158.86
2018-01-11T11:46:01.692Z,101156.92
2018-01-11T11:48:27.555Z,101157.88
2018-01-11T11:50:53.381Z,101160.98
2018-01-11T11:53:19.213Z,101168.73
2018-01-11T11:55:45.037Z,101157.72
2018-01-11T11:58:10.816Z,101162.26
2018-01-11T12:00:36.598Z,101164.39
2018-01-11T12:03:02.378Z,101158.92
2018-01-11T12:05:28.207Z,101161.89
2018-01-11T12:07:53.990Z,101157.77
2018-01-11T12:10:19.770Z,101159.80
2018-01-11T12:12:45.665Z,101162.86
2018-01-11T12:15:11.485Z,101165.19
2018-01-11T12:17:37.273Z,101169.57
2018-01-11T12:20:03.092Z,101167.45
2018-01-11T12:22:28.869Z,101170.45
2018-01-11T12:24:54.700Z,101179.07
2018-01-11T12:27:20.581Z,101178.34
2018-01-11T12:29:46.373Z,101180.34
2018-01-11T12:32:12.174Z,101186.86
2018-01-11T12:34:38.042Z,101190.68
2018-01-11T12:37:04.093Z,101192.05
2018-01-11T12:39:29.905Z,101202.83
2018-01-11T12:41:55.713Z,101199.83
2018-01-11T12:44:21.502Z,101210.08
2018-01-11T12:46:47.313Z,101196.50
2018-01-11T12:49:13.099Z,101202.37
2018-01-11T12:51:39.046Z,101196.44
2018-01-11T12:54:04.838Z,101196.63
2018-01-11T12:56:30.725Z,101192.44
2018-01-11T12:58:56.547Z,101188.06
2018-01-11T13:01:22.388Z,101192.36
2018-01-11T13:03:48.186Z,101191.37
2018-01-11T13:06:13.974Z,101193.80
2018-01-11T13:08:39.827Z,101192.36
2018-01-11T13:11:05.655Z,101192.73
2018-01-11T13:13:31.471Z,101196.50
2018-01-11T13:15:57.358Z,101191.89
2018-01-11T13:18:23.146Z,101193.63
2018-01-11T13:20:49.061Z,101195.25
2018-01-11T13:23:14.946Z,101198.35
2018-01-11T13:25:40.758Z,101198.43
2018-01-11T13:28:06.533Z,101200.38
2018-01-11T13:30:32.374Z,101216.92
2018-01-11T13:32:58.272Z,101215.13
2018-01-11T13:35:24.098Z,101213.52
2018-01-11T13:37:49.889Z,101213.45
2018-01-11T13:40:15.675Z,101219.66
2018-01-11T13:42:41.455Z,101219.38
2018-01-11T13:45:07.251Z,101219.75
2018-01-11T13:47:33.101Z,101224.58
2018-01-11T13:49:58.894Z,101227.93
2018-01-11T13:52:24.829Z,101240.97
2018-01-11T13:54:50.610Z,101241.19
2018-01-11T13:57:16.570Z,101248.40
2018-01-11T13:59:43.359Z,101253.38
2018-01-11T14:02:09.179Z,101253.39
2018-01-11T14:04:34.965Z,101256.19
2018-01-11T14:07:00.748Z,101261.02
2018-01-11T14:09:26.541Z,101264.09
2018-01-11T14:11:52.326Z,101258.94
2018-01-11T14:14:18.111Z,101264.11
2018-01-11T14:16:43.940Z,101263.44
2018-01-11T14:19:09.732Z,101264.34
2018-01-11T14:21:35.513Z,101275.32
2018-01-11T14:24:01.294Z,101279.74
2018-01-11T14:26:27.135Z,101284.09
2018-01-11T14:28:53.086Z,101289.17
2018-01-11T14:31:18.862Z,101283.75
2018-01-11T14:33:44.647Z,101289.80
2018-01-11T14:36:10.634Z,101298.00
2018-01-11T14:38:36.428Z,101301.13
2018-01-11T14:41:02.211Z,101302.16
2018-01-11T14:43:27.998Z,101309.24
2018-01-11T14:45:53.789Z,101315.48
2018-01-11T14:48:19.623Z,101321.47
2018-01-11T14:50:45.409Z,101321.05
2018-01-11T14:53:11.227Z,101326.72
2018-01-11T14:55:37.011Z,101324.87
2018-01-11T14:58:02.843Z,101326.80
2018-01-11T15:00:28.739Z,101328.91
2018-01-11T15:02:54.524Z,101325.58
2018-01-11T15:05:20.438Z,101334.08
2018-01-11T15:07:46.221Z,101329.11
2018-01-11T15:10:12.090Z,101333.48
2018-01-11T15:12:37.875Z,101334.53
2018-01-11T15:15:03.662Z,101340.62
2018-01-11T15:17:29.446Z,101334.35
2018-01-11T15:19:55.232Z,101340.50
2018-01-11T15:22:21.014Z,101341.06
2018-01-11T15:24:46.794Z,101345.77
2018-01-11T15:27:12.577Z,101344.68
2018-01-11T15:29:38.362Z,101357.59
2018-01-11T15:32:04.229Z,101362.20
2018-01-11T15:34:29.999Z,101363.16
2018-01-11T15:36:55.823Z,101372.89
2018-01-11T15:39:21.640Z,101374.98
2018-01-11T15:41:47.423Z,101375.68
2018-01-11T15:44:13.202Z,101374.00
2018-01-11T15:46:39.019Z,101378.98
2018-01-11T15:49:04.834Z,101383.38
2018-01-11T15:51:30.619Z,101385.41
2018-01-11T15:53:56.436Z,101386.73
2018-01-11T15:56:22.222Z,101395.77
2018-01-11T15:58:48.035Z,101400.36
2018-01-11T16:01:13.853Z,101401.73
2018-01-11T16:03:39.670Z,101400.52
2018-01-11T16:06:05.457Z,101404.40
2018-01-11T16:08:31.233Z,101408.27
2018-01-11T16:10:57.017Z,101415.62
2018-01-11T16:13:23.765Z,101412.73
2018-01-11T16:15:49.618Z,101420.92
2018-01-11T16:18:15.431Z,101419.89
2018-01-11T16:20:41.243Z,101415.98
2018-01-11T16:23:07.055Z,101412.35
2018-01-11T16:25:32.874Z,101420.97
2018-01-11T16:27:58.682Z,101420.33
2018-01-11T16:30:24.507Z,101418.98
2018-01-11T16:32:50.335Z,101422.05
2018-01-11T16:35:16.176Z,101418.19
2018-01-11T16:37:42.035Z,101427.79
2018-01-11T16:40:07.871Z,101422.98
2018-01-11T16:42:33.682Z,101421.30
2018-01-11T16:44:59.499Z,101426.02
2018-01-11T16:47:25.302Z,101428.35
2018-01-11T16:49:51.115Z,101423.17
2018-01-11T16:52:16.935Z,101422.06
2018-01-11T16:54:42.758Z,101427.14
2018-01-11T16:57:09.564Z,101429.86
2018-01-11T16:59:35.370Z,101432.23
2018-01-11T17:02:01.248Z,101437.25
2018-01-11T17:04:27.095Z,101431.34
2018-01-11T17:06:52.959Z,101439.31
2018-01-11T17:09:18.779Z,101438.15
2018-01-11T17:11:44.619Z,101438.99
2018-01-11T17:14:10.448Z,101439.38
2018-01-11T17:16:36.314Z,101445.27
2018-01-11T17:19:02.145Z,101447.14
2018-01-11T17:21:27.972Z,101454.23
2018-01-11T17:23:53.843Z,101458.08
2018-01-11T17:26:19.687Z,101456.33
2018-01-11T17:28:45.521Z,101456.28
2018-01-11T17:31:11.334Z,101456.93
2018-01-11T17:33:37.205Z,101463.22
2018-01-11T17:36:03.031Z,101465.41
2018-01-11T17:38:28.861Z,101468.04
2018-01-11T17:40:54.749Z,101472.56
2018-01-11T17:43:20.591Z,101474.77
2018-01-11T17:45:46.575Z,101479.77
2018-01-11T17:48:12.402Z,101481.16
2018-01-11T17:50:38.422Z,101480.69
2018-01-11T17:53:04.260Z,101486.59
2018-01-11T17:55:30.106Z,101488.27
2018-01-11T17:57:56.050Z,101491.24
2018-01-11T18:00:21.903Z,101494.30
2018-01-11T18:02:47.774Z,101497.50
2018-01-11T18:05:13.586Z,101494.55
2018-01-11T18:07:39.402Z,101498.50
2018-01-11T18:10:05.367Z,101495.55
2018-01-11T18:12:31.350Z,101499.00
2018-01-11T18:14:57.277Z,101500.03
2018-01-11T18:17:23.218Z,101496.16
2018-01-11T18:19:49.155Z,101502.38
2018-01-11T18:22:15.042Z,101500.59
2018-01-11T18:24:40.982Z,101506.82
2018-01-11T18:27:07.003Z,101504.06
2018-01-11T18:29:32.819Z,101500.94
2018-01-11T18:31:58.740Z,101503.92
2018-01-11T18:34:24.663Z,101505.63
2018-01-11T18:36:50.575Z,101501.53
2018-01-11T18:39:16.381Z,101504.23
2018-01-11T18:41:42.190Z,101509.31
2018-01-11T18:44:08.002Z,101522.11
2018-01-11T18:46:33.815Z,101520.37
2018-01-11T18:48:59.626Z,101522.16
2018-01-11T18:51:25.448Z,101524.77
2018-01-11T18:53:51.411Z,101524.34
2018-01-11T18:56:17.263Z,101528.34
2018-01-11T18:58:43.074Z,101536.06
2018-01-11T19:01:08.884Z,101542.22
2018-01-11T19:03:34.728Z,101544.69
2018-01-11T19:06:00.538Z,101549.78
2018-01-11T19:08:26.350Z,101544.27
2018-01-11T19:10:52.163Z,101546.69
2018-01-11T19:13:18.022Z,101550.70
2018-01-11T19:15:44.010Z,101552.44
2018-01-11T19:18:09.826Z,101557.52
2018-01-11T19:20:35.787Z,101557.15
2018-01-11T19:23:01.603Z,101562.28
2018-01-11T19:25:27.618Z,101564.49
2018-01-11T19:27:53.506Z,101562.91
2018-01-11T19:30:19.319Z,101559.98
2018-01-11T19:32:45.141Z,101569.53
2018-01-11T19:35:10.956Z,101574.62
2018-01-11T19:37:36.774Z,101580.16
2018-01-11T19:40:02.586Z,101588.02
2018-01-11T19:42:28.460Z,101590.03
2018-01-11T19:44:54.277Z,101590.38
2018-01-11T19:47:20.129Z,101594.34
2018-01-11T19:49:45.942Z,101594.94
2018-01-11T19:52:11.754Z,101598.31
2018-01-11T19:54:37.574Z,101597.84
2018-01-11T19:57:03.391Z,101604.05
2018-01-11T19:59:29.210Z,101604.62
2018-01-11T20:01:55.023Z,101607.29
2018-01-11T20:04:21.058Z,101608.81
2018-01-11T20:06:46.906Z,101619.30
2018-01-11T20:09:12.718Z,101620.84
2018-01-11T20:11:38.561Z,101627.84
2018-01-11T20:14:04.498Z,101630.33
2018-01-11T20:16:30.460Z,101634.55
2018-01-11T20:18:56.443Z,101637.02
2018-01-11T20:21:22.286Z,101636.58
2018-01-11T20:23:48.102Z,101640.33
2018-01-11T20:26:13.955Z,101641.13
2018-01-11T20:28:39.766Z,101642.66
2018-01-11T20:31:05.570Z,101646.41
2018-01-11T20:33:31.430Z,101647.78
2018-01-11T20:35:57.246Z,101646.34
2018-01-11T20:38:23.069Z,101652.88
2018-01-11T20:40:48.925Z,101654.72
2018-01-11T20:43:14.739Z,101653.55
2018-01-11T20:45:40.671Z,101650.81
2018-01-11T20:48:06.488Z,101655.34
2018-01-11T20:50:32.418Z,101657.04
2018-01-11T20:52:58.245Z,101651.82
2018-01-11T20:55:31.030Z,101653.04
2018-01-11T20:57:56.869Z,101662.77
2018-01-11T21:00:22.710Z,101662.04
2018-01-11T21:02:48.527Z,101665.42
2018-01-11T21:05:14.518Z,101661.09
2018-01-11T21:07:40.333Z,101663.05
2018-01-11T21:10:06.247Z,101665.05
2018-01-11T21:12:32.063Z,101665.89
2018-01-11T21:14:57.922Z,101671.14
2018-01-11T21:17:23.730Z,101675.33
2018-01-11T21:19:49.614Z,101679.38
2018-01-11T21:22:15.426Z,101682.23
2018-01-11T21:24:41.248Z,101681.91
2018-01-11T21:27:07.095Z,101690.34
2018-01-11T21:29:32.907Z,101694.34
2018-01-11T21:31:58.764Z,101694.94
2018-01-11T21:34:24.582Z,101698.41
2018-01-11T21:36:50.430Z,101708.53
2018-01-11T21:39:16.242Z,101717.41
2018-01-11T21:41:42.094Z,101713.52
2018-01-11T21:44:07.903Z,101716.05
2018-01-11T21:46:33.742Z,101718.37
2018-01-11T21:48:59.553Z,101732.77
2018-01-11T21:51:25.478Z,101732.83
2018-01-11T21:53:51.288Z,101737.45
2018-01-11T21:56:17.102Z,101738.09
2018-01-11T21:58:42.915Z,101739.40
2018-01-11T22:01:08.727Z,101749.30
2018-01-11T22:03:34.669Z,101741.72
2018-01-11T22:06:00.489Z,101752.23
2018-01-11T22:08:26.318Z,101747.82
2018-01-11T22:10:52.134Z,101757.11
2018-01-11T22:13:17.943Z,101757.00
2018-01-11T22:15:43.751Z,101759.44
2018-01-11T22:18:09.561Z,101760.34
2018-01-11T22:20:35.365Z,101760.00
2018-01-11T22:23:01.187Z,101759.79
2018-01-11T22:25:27.059Z,101759.06
2018-01-11T22:27:52.869Z,101756.28
2018-01-11T22:30:18.735Z,101756.48
2018-01-11T22:32:44.550Z,101751.14
2018-01-11T22:35:10.356Z,101748.14
2018-01-11T22:37:36.159Z,101753.53
2018-01-11T22:40:01.970Z,101758.31
2018-01-11T22:42:27.786Z,101759.53
2018-01-11T22:44:53.594Z,101763.30
2018-01-11T22:47:19.408Z,101759.89
2018-01-11T22:49:45.225Z,101766.55
2018-01-11T22:52:11.038Z,101770.38
2018-01-11T22:54:36.854Z,101777.50
2018-01-11T22:57:02.659Z,101778.50
2018-01-11T22:59:28.474Z,101785.45
2018-01-11T23:01:54.278Z,101786.31
2018-01-11T23:04:20.090Z,101785.92
2018-01-11T23:06:45.903Z,101790.47
2018-01-11T23:09:11.822Z,101796.94
2018-01-11T23:11:42.495Z,101799.41
2018-01-11T23:14:08.312Z,101803.00
2018-01-11T23:16:34.160Z,101804.19
2018-01-11T23:18:59.978Z,101799.94
2018-01-11T23:21:25.821Z,101798.98
2018-01-11T23:23:51.862Z,101807.54
2018-01-11T23:26:17.710Z,101804.61
2018-01-11T23:28:43.580Z,101797.81
2018-01-11T23:31:09.567Z,101800.80
2018-01-11T23:33:35.379Z,101802.34
2018-01-11T23:36:01.190Z,101805.86
2018-01-11T23:38:27.050Z,101809.67
2018-01-11T23:40:52.906Z,101806.40
2018-01-11T23:43:18.756Z,101811.76
2018-01-11T23:45:44.575Z,101812.38
2018-01-11T23:48:10.431Z,101806.59
2018-01-11T23:50:36.299Z,101808.03
2018-01-11T23:53:02.110Z,101813.25
2018-01-11T23:55:27.951Z,101811.23
2018-01-11T23:57:53.799Z,101816.89
